Terminal Aerodrome Forecast
Issued by NWS

Home | Current Version | Previous Version | Text Only | Print | Product List | Glossary On
Versions: 1 2 3 4 5 6 7 8 9 10 11 12 13
000
FTUS42 KTAE 252326
TAFECP
TAF
KECP 252326Z 2600/2624 16010KT P6SM SCT050
     FM260100 16009KT P6SM VCSH BKN050
     FM260300 VRB10G15KT 3SM SHRA VCTS OVC040CB
     FM260700 16007KT 6SM BR SCT020 BKN040
     FM261300 17010KT P6SM BKN050=

USA.gov is the U.S. government's official web portal to all federal, state and local government web resources and services.